Time;durP1;ratioP1;P1;durP2;ratioP2;P2;SDS_P1;SDS_P2;PMS_P1;PMS_P2;Temp;Humidity;BMP_temperature;BMP_pressure;BME280_temperature;BME280_humidity;BME280_pressure;Samples;Min_cycle;Max_cycle;Signal;HPM_P1;HPM_P2
2021/05/06 00:33:53;;;;;;;;;1.75;1.75;;;;;9.97;53.45;99258.91;3580936;40;13993;-59
2021/05/06 00:36:21;;;;;;;;;2.75;1.00;;;;;9.89;52.42;99249.53;3582605;40;11152;-60
2021/05/06 00:38:54;;;;;;;;;0.50;0.50;;;;;10.21;52.15;99248.34;3581110;40;10558;-59
2021/05/06 00:55:02;;;;;;;;;0.00;0.00;;;;;9.89;51.55;99270.13;3584438;40;14022;-60
2021/05/06 01:05:55;;;;;;;;;0.00;0.00;;;;;9.88;52.04;99301.47;3580778;40;14007;-59
2021/05/06 01:08:29;;;;;;;;;2.00;1.00;;;;;9.88;52.44;99298.78;3582898;40;14148;-60
2021/05/06 01:11:15;;;;;;;;;1.00;1.00;;;;;9.87;51.60;99305.09;3582332;40;14156;-60
2021/05/06 01:13:43;;;;;;;;;0.50;0.00;;;;;9.88;52.87;99311.31;3584697;40;13987;-60
2021/05/06 01:16:10;;;;;;;;;1.00;0.25;;;;;9.74;52.80;99320.28;3588156;40;14161;-60
2021/05/06 01:18:55;;;;;;;;;0.00;0.00;;;;;9.94;52.43;99326.16;3579221;40;14073;-60
2021/05/06 01:21:22;;;;;;;;;1.50;0.00;;;;;9.75;52.98;99324.66;3582397;40;14004;-60
2021/05/06 01:23:51;;;;;;;;;1.50;0.00;;;;;9.58;54.07;99333.75;3580818;40;14055;-60
2021/05/06 01:27:22;;;;;;;;;0.00;0.00;;;;;9.67;53.87;99326.97;3590299;40;13992;-60
2021/05/06 01:34:29;;;;;;;;;0.00;0.00;;;;;9.68;53.15;99328.69;3581722;40;13979;-59
2021/05/06 01:37:01;;;;;;;;;0.25;0.00;;;;;9.63;54.46;99333.47;3577937;40;13967;-60
2021/05/06 01:42:20;;;;;;;;;2.50;1.00;;;;;9.74;52.44;99331.00;3582054;40;13964;-59
2021/05/06 01:45:10;;;;;;;;;1.00;1.00;;;;;9.71;52.54;99336.53;3583711;40;13979;-59
2021/05/06 01:58:55;;;;;;;;;0.00;0.00;;;;;9.64;53.56;99335.22;3577939;40;14011;-60
2021/05/06 02:01:04;;;;;;;;;0.75;0.75;;;;;9.55;53.75;99341.13;3576057;40;13957;-59
2021/05/06 02:03:31;;;;;;;;;0.00;0.00;;;;;9.75;52.70;99348.78;3582093;40;13960;-59
2021/05/06 02:05:59;;;;;;;;;2.25;0.00;;;;;9.55;53.09;99351.84;3568449;40;13997;-59
2021/05/06 02:08:26;;;;;;;;;1.00;0.00;;;;;9.62;52.57;99351.38;3582866;40;13970;-59
2021/05/06 02:10:58;;;;;;;;;0.00;0.00;;;;;9.75;51.61;99364.88;3580156;40;13998;-59
2021/05/06 02:13:26;;;;;;;;;0.25;0.25;;;;;9.67;51.89;99348.41;3582891;40;13968;-59
2021/05/06 02:16:02;;;;;;;;;1.00;1.00;;;;;9.61;52.03;99349.66;3584516;40;14055;-58
2021/05/06 02:18:32;;;;;;;;;0.00;0.00;;;;;9.66;51.65;99362.75;3581386;40;13965;-59
2021/05/06 02:20:59;;;;;;;;;0.75;0.75;;;;;9.67;51.92;99360.00;3579950;40;14107;-59
2021/05/06 02:23:26;;;;;;;;;0.00;0.00;;;;;9.60;51.60;99365.84;3589826;40;13985;-60
2021/05/06 02:25:53;;;;;;;;;1.00;1.00;;;;;9.49;52.87;99373.69;3578873;40;14028;-59
2021/05/06 02:28:20;;;;;;;;;0.00;0.00;;;;;9.57;52.59;99377.59;3581593;40;10577;-60
2021/05/06 02:30:46;;;;;;;;;1.00;0.00;;;;;9.62;51.28;99380.00;3578794;40;10552;-59
2021/05/06 02:33:13;;;;;;;;;1.00;0.00;;;;;9.54;52.22;99368.91;3590715;39;13993;-60
2021/05/06 02:35:40;;;;;;;;;26.33;26.33;;;;;9.57;51.90;99371.38;3581447;40;13991;-60
2021/05/06 02:38:08;;;;;;;;;7.67;7.67;;;;;9.49;51.58;99379.06;3581346;40;9813;-59
2021/05/06 02:40:35;;;;;;;;;12.00;10.00;;;;;9.60;52.16;99376.56;3579314;40;9786;-60
2021/05/06 02:43:03;;;;;;;;;6.00;6.00;;;;;9.47;53.48;99381.81;3582025;40;9782;-59
2021/05/06 02:45:30;;;;;;;;;6.67;6.67;;;;;9.59;52.00;99369.47;3581943;40;9978;-60
2021/05/06 02:47:57;;;;;;;;;4.00;2.00;;;;;9.51;52.69;99374.47;3583996;40;10185;-60
2021/05/06 02:50:25;;;;;;;;;0.75;0.75;;;;;9.54;52.73;99380.47;3585413;40;10684;-59
2021/05/06 02:53:01;;;;;;;;;1.67;1.00;;;;;9.51;52.79;99372.63;3586410;40;13987;-59
2021/05/06 02:58:19;;;;;;;;;1.00;1.00;;;;;9.34;53.77;99371.00;3586398;40;10291;-60
2021/05/06 03:03:41;;;;;;;;;1.00;1.00;;;;;9.43;53.59;99375.78;3586651;40;10107;-60
2021/05/06 03:06:11;;;;;;;;;0.00;0.00;;;;;9.43;53.48;99373.13;3586292;40;10648;-60
2021/05/06 03:08:41;;;;;;;;;1.00;1.00;;;;;9.22;54.66;99372.63;3585851;40;13965;-60
2021/05/06 03:24:21;;;;;;;;;1.00;1.00;;;;;9.05;58.58;99396.88;3586197;40;10759;-60
2021/05/06 03:26:48;;;;;;;;;5.00;0.00;;;;;9.10;58.27;99399.28;3586103;40;10927;-59
2021/05/06 03:29:22;;;;;;;;;1.67;1.00;;;;;8.95;59.00;99409.97;3593668;40;9922;-59
2021/05/06 04:18:26;;;;;;;;;3.00;3.00;;;;;9.49;61.43;99516.59;3585954;40;10367;-59
2021/05/06 04:26:37;;;;;;;;;3.00;3.00;;;;;9.78;60.47;99514.81;3581324;40;10313;-61
2021/05/06 04:37:25;;;;;;;;;2.25;2.25;;;;;9.92;58.89;99513.09;3587001;40;14097;-60
2021/05/06 04:40:06;;;;;;;;;2.00;2.00;;;;;9.81;58.30;99509.25;3587067;40;14476;-59
2021/05/06 05:04:33;;;;;;;;;1.50;1.50;;;;;11.78;49.80;99539.50;3564784;40;14121;-60
2021/05/06 05:25:38;;;;;;;;;1.50;1.50;;;;;12.73;47.14;99539.03;3586063;40;13988;-59
2021/05/06 05:28:07;;;;;;;;;0.75;0.75;;;;;12.34;48.09;99548.13;3577479;40;14056;-59
2021/05/06 05:30:36;;;;;;;;;2.00;2.00;;;;;13.04;46.16;99557.50;3576652;40;14837;-58
2021/05/06 05:33:13;;;;;;;;;2.00;1.75;;;;;14.02;44.00;99567.09;3586838;40;13979;-59
2021/05/06 05:36:24;;;;;;;;;2.00;2.00;;;;;13.55;46.27;99568.06;3587138;40;13990;-59
2021/05/06 05:38:52;;;;;;;;;2.00;2.00;;;;;12.65;46.96;99567.50;3583373;40;14702;-59
2021/05/06 05:41:45;;;;;;;;;1.50;1.50;;;;;12.73;46.99;99565.09;3587000;40;14003;-58
2021/05/06 05:54:37;;;;;;;;;2.00;2.00;;;;;11.61;50.25;99565.72;3586344;40;13967;-58
2021/05/06 05:57:11;;;;;;;;;1.00;1.00;;;;;10.91;51.79;99565.88;3586555;40;14197;-59
2021/05/06 05:59:38;;;;;;;;;1.50;1.50;;;;;12.01;49.30;99568.41;3576802;40;13994;-59
2021/05/06 06:02:06;;;;;;;;;1.25;1.25;;;;;12.41;47.53;99579.06;3584549;40;13988;-59
2021/05/06 06:04:33;;;;;;;;;2.50;1.00;;;;;12.48;47.85;99583.03;3585881;40;14503;-60
2021/05/06 06:07:01;;;;;;;;;2.00;2.00;;;;;12.36;48.21;99586.59;3586397;40;14216;-59
2021/05/06 06:09:28;;;;;;;;;2.00;2.00;;;;;11.51;49.61;99585.28;3586484;40;14032;-60
2021/05/06 06:11:54;;;;;;;;;2.00;1.00;;;;;11.83;48.65;99583.94;3586080;40;14175;-60
2021/05/06 06:14:25;;;;;;;;;1.25;1.00;;;;;11.99;47.66;99583.78;3586334;40;13989;-59
2021/05/06 06:16:52;;;;;;;;;1.00;1.00;;;;;12.26;47.98;99589.06;3586661;40;13993;-60
2021/05/06 06:19:24;;;;;;;;;1.25;1.00;;;;;12.72;47.89;99584.94;3586047;40;14005;-59
2021/05/06 06:21:53;;;;;;;;;1.50;1.00;;;;;12.54;47.37;99581.75;3586126;40;13996;-57
2021/05/06 06:24:20;;;;;;;;;1.00;1.00;;;;;12.38;47.79;99586.50;3582908;40;13972;-59
2021/05/06 06:26:47;;;;;;;;;2.75;1.00;;;;;11.89;48.36;99589.91;3583041;40;13972;-59
2021/05/06 06:29:17;;;;;;;;;4.50;2.50;;;;;13.53;46.06;99586.19;3584992;40;14013;-59
2021/05/06 06:31:47;;;;;;;;;2.25;1.75;;;;;13.58;44.12;99589.41;3585898;40;13995;-59
2021/05/06 06:34:14;;;;;;;;;1.00;1.00;;;;;13.56;44.94;99591.34;3586503;40;14001;-59
2021/05/06 06:36:44;;;;;;;;;1.25;1.00;;;;;13.50;44.39;99583.72;3586456;40;13999;-59
2021/05/06 06:39:14;;;;;;;;;1.00;1.00;;;;;13.94;43.12;99591.13;3586380;40;13973;-57
2021/05/06 06:41:45;;;;;;;;;2.00;2.00;;;;;13.45;44.19;99594.84;3586559;40;14077;-58
2021/05/06 06:44:14;;;;;;;;;1.00;1.00;;;;;14.52;42.32;99580.31;3586196;40;13968;-58
2021/05/06 06:46:42;;;;;;;;;2.00;1.00;;;;;14.68;40.93;99586.22;3586509;40;13956;-58
2021/05/06 06:49:12;;;;;;;;;0.50;0.50;;;;;14.51;42.02;99589.41;3585759;40;14483;-57
2021/05/06 06:51:40;;;;;;;;;2.00;2.00;;;;;14.46;42.98;99586.22;3586201;40;13905;-58
2021/05/06 06:54:08;;;;;;;;;1.00;1.00;;;;;14.54;43.05;99591.03;3586024;40;13913;-56
2021/05/06 06:56:34;;;;;;;;;1.75;1.00;;;;;14.06;42.47;99583.94;3586587;40;13932;-54
2021/05/06 06:59:01;;;;;;;;;2.00;2.00;;;;;14.38;42.87;99588.66;3586074;40;13892;-55
2021/05/06 07:01:28;;;;;;;;;1.00;1.00;;;;;14.19;40.88;99581.13;3586097;40;13995;-55
2021/05/06 07:03:55;;;;;;;;;1.00;1.00;;;;;15.08;40.51;99588.41;3586057;40;13923;-55
2021/05/06 07:06:22;;;;;;;;;1.00;1.00;;;;;15.04;40.17;99591.50;3586044;40;13900;-55
2021/05/06 07:08:49;;;;;;;;;2.00;1.00;;;;;14.59;40.44;99592.38;3586317;40;14166;-56
2021/05/06 07:11:16;;;;;;;;;2.25;1.75;;;;;15.58;39.59;99596.88;3593745;40;13981;-55
2021/05/06 07:13:44;;;;;;;;;1.00;1.00;;;;;15.50;39.79;99603.91;3586057;40;13928;-56
2021/05/06 07:16:12;;;;;;;;;3.00;1.00;;;;;15.36;39.18;99605.06;3586242;40;13902;-55
2021/05/06 07:18:40;;;;;;;;;1.00;1.00;;;;;15.11;39.02;99600.81;3593828;40;13897;-54
2021/05/06 07:21:07;;;;;;;;;2.00;1.00;;;;;15.11;39.05;99601.69;3585880;40;13927;-57
2021/05/06 07:23:35;;;;;;;;;3.00;2.00;;;;;15.57;39.86;99600.56;3584901;40;13896;-56
2021/05/06 07:26:06;;;;;;;;;1.00;1.00;;;;;15.91;38.95;99603.19;3586126;40;14111;-56
2021/05/06 07:28:38;;;;;;;;;1.00;1.00;;;;;15.45;39.30;99604.28;3585096;40;14407;-54
2021/05/06 07:31:11;;;;;;;;;2.00;1.00;;;;;14.93;38.59;99601.34;3585397;40;13894;-56
2021/05/06 07:33:43;;;;;;;;;2.50;1.50;;;;;15.06;38.73;99601.22;3593339;40;13913;-56
2021/05/06 07:36:15;;;;;;;;;3.00;1.00;;;;;14.90;39.64;99607.00;3586367;40;14067;-56
2021/05/06 07:38:46;;;;;;;;;0.25;0.00;;;;;15.04;38.73;99591.50;3585777;40;13953;-56
2021/05/06 07:41:16;;;;;;;;;1.75;1.75;;;;;15.17;38.66;99592.22;3585574;40;13905;-59
2021/05/06 07:43:46;;;;;;;;;1.50;1.00;;;;;15.48;38.75;99587.84;3586268;40;13929;-59
2021/05/06 07:46:17;;;;;;;;;1.00;1.00;;;;;14.69;39.26;99598.78;3585818;40;13911;-56
2021/05/06 07:48:52;;;;;;;;;2.00;2.00;;;;;14.62;37.71;99604.78;3586089;40;13914;-58
2021/05/06 07:51:24;;;;;;;;;3.00;2.00;;;;;15.00;37.28;99596.28;3586173;40;13910;-55
2021/05/06 07:53:55;;;;;;;;;5.25;2.25;;;;;15.15;35.80;99595.03;3585389;40;13999;-53
2021/05/06 07:56:26;;;;;;;;;3.50;2.00;;;;;15.19;36.62;99600.19;3584913;40;14006;-57
2021/05/06 07:58:53;;;;;;;;;1.25;1.25;;;;;14.80;37.19;99602.47;3585609;40;14011;-56
2021/05/06 08:01:21;;;;;;;;;3.00;2.00;;;;;14.68;37.21;99602.44;3587013;40;13974;-57
2021/05/06 08:03:48;;;;;;;;;3.00;2.00;;;;;15.66;35.93;99608.91;3587165;40;13908;-58
2021/05/06 08:06:20;;;;;;;;;2.75;1.00;;;;;15.22;36.01;99599.94;3587235;40;13937;-56
2021/05/06 08:08:52;;;;;;;;;2.00;1.00;;;;;14.93;36.08;99614.00;3593426;40;14189;-55
2021/05/06 08:11:21;;;;;;;;;3.00;2.50;;;;;14.92;37.64;99609.56;3583337;40;14012;-56
2021/05/06 08:13:55;;;;;;;;;2.25;1.00;;;;;16.06;36.48;99619.09;3578920;40;13982;-54
2021/05/06 08:16:22;;;;;;;;;3.00;1.00;;;;;15.68;35.88;99632.16;3587177;40;14030;-53
2021/05/06 08:18:49;;;;;;;;;2.00;1.00;;;;;15.50;36.05;99618.31;3586881;40;13926;-55
2021/05/06 08:21:16;;;;;;;;;3.00;1.00;;;;;15.33;36.83;99613.44;3587057;40;14048;-58
2021/05/06 08:23:45;;;;;;;;;3.50;1.75;;;;;14.79;37.55;99606.13;3587075;40;14004;-59
2021/05/06 08:26:12;;;;;;;;;2.00;1.00;;;;;15.50;37.21;99609.34;3585238;40;13971;-59
2021/05/06 08:28:49;;;;;;;;;2.75;2.00;;;;;14.70;38.26;99610.44;3586176;40;14130;-57
2021/05/06 08:31:17;;;;;;;;;4.00;2.00;;;;;14.43;39.37;99608.06;3587156;40;13979;-58
2021/05/06 08:33:43;;;;;;;;;2.25;1.75;;;;;14.44;39.30;99609.78;3581994;40;14095;-58
2021/05/06 08:36:11;;;;;;;;;2.00;2.00;;;;;14.76;39.50;99606.38;3587342;40;13974;-56
2021/05/06 08:38:38;;;;;;;;;2.75;1.00;;;;;14.99;39.18;99608.09;3585882;40;14545;-56
2021/05/06 08:41:06;;;;;;;;;1.00;1.00;;;;;15.59;38.82;99604.03;3585715;40;13977;-55
2021/05/06 08:43:38;;;;;;;;;1.50;1.00;;;;;14.86;38.03;99610.06;3592397;40;13996;-55
2021/05/06 08:46:06;;;;;;;;;0.75;0.00;;;;;14.64;37.12;99617.19;3584882;40;13922;-55
2021/05/06 08:48:47;;;;;;;;;1.00;1.00;;;;;14.76;37.03;99609.09;3584045;40;13975;-56
2021/05/06 08:51:15;;;;;;;;;0.75;0.75;;;;;15.13;37.36;99601.56;3585735;40;14067;-57
2021/05/06 08:53:43;;;;;;;;;2.75;1.00;;;;;15.21;37.16;99614.44;3586835;40;14013;-56
2021/05/06 08:56:10;;;;;;;;;1.00;0.75;;;;;14.78;36.57;99615.25;3587145;40;14334;-55
2021/05/06 08:58:37;;;;;;;;;2.25;1.00;;;;;14.72;35.81;99608.50;3587212;40;14004;-56
2021/05/06 09:01:04;;;;;;;;;1.50;0.75;;;;;15.14;35.89;99614.97;3579766;40;14006;-56
2021/05/06 09:03:31;;;;;;;;;1.00;1.00;;;;;15.44;35.88;99618.81;3576889;40;14401;-54
2021/05/06 09:06:17;;;;;;;;;0.50;0.50;;;;;15.07;36.43;99618.28;3577103;40;14017;-56
2021/05/06 09:08:51;;;;;;;;;1.00;1.00;;;;;14.54;37.74;99616.22;3576867;40;14123;-58
2021/05/06 09:11:40;;;;;;;;;0.25;0.25;;;;;15.04;37.99;99608.59;3576541;40;14804;-55
2021/05/06 09:14:08;;;;;;;;;2.25;1.00;;;;;15.03;38.48;99612.25;3577519;40;13952;-57
2021/05/06 09:16:41;;;;;;;;;3.00;1.00;;;;;15.29;37.89;99606.56;3586584;40;14007;-57
2021/05/06 09:19:12;;;;;;;;;1.25;1.00;;;;;15.21;38.22;99599.06;3586593;40;13992;-57
2021/05/06 09:21:43;;;;;;;;;1.00;1.00;;;;;15.61;38.04;99606.59;3587107;40;13993;-56
2021/05/06 09:24:23;;;;;;;;;1.50;1.50;;;;;15.32;36.89;99603.59;3586535;40;14194;-54
2021/05/06 09:27:02;;;;;;;;;4.75;1.50;;;;;15.91;37.22;99608.59;3586749;40;13989;-56
2021/05/06 09:29:41;;;;;;;;;1.00;1.00;;;;;15.79;37.42;99604.22;3576865;40;13699;-58
2021/05/06 09:32:14;;;;;;;;;2.00;1.00;;;;;16.08;36.07;99609.00;3576733;40;14065;-56
2021/05/06 09:34:42;;;;;;;;;2.00;2.00;;;;;16.49;35.20;99607.28;3576496;40;13920;-56
2021/05/06 09:37:21;;;;;;;;;1.75;1.75;;;;;17.13;35.69;99607.00;3581916;40;13910;-57
2021/05/06 09:40:01;;;;;;;;;2.00;2.00;;;;;16.58;35.39;99595.63;3587070;40;13957;-56
2021/05/06 09:42:49;;;;;;;;;4.00;2.25;;;;;16.98;35.89;99609.25;3586874;40;13918;-54
2021/05/06 09:45:28;;;;;;;;;3.00;2.00;;;;;16.82;36.16;99615.16;3586403;40;14137;-56
2021/05/06 09:48:08;;;;;;;;;1.25;1.25;;;;;16.99;36.76;99608.25;3586627;40;13907;-56
2021/05/06 09:50:38;;;;;;;;;3.00;2.00;;;;;17.50;36.49;99615.34;3586728;40;13916;-54
2021/05/06 09:53:14;;;;;;;;;4.00;3.00;;;;;16.08;37.19;99609.00;3586960;40;13951;-58
2021/05/06 09:55:46;;;;;;;;;3.00;3.00;;;;;15.80;37.84;99612.22;3586620;40;13998;-54
2021/05/06 09:58:14;;;;;;;;;4.75;3.00;;;;;15.97;38.94;99613.47;3586419;40;13940;-53
2021/05/06 10:00:42;;;;;;;;;5.75;3.00;;;;;16.49;37.29;99618.13;3585949;40;13963;-58
2021/05/06 10:03:32;;;;;;;;;3.25;3.25;;;;;16.11;38.53;99619.56;3586325;40;14496;-55
2021/05/06 10:06:13;;;;;;;;;6.00;3.00;;;;;15.31;39.27;99615.41;3586220;40;13917;-56
2021/05/06 10:08:40;;;;;;;;;3.00;3.00;;;;;15.62;39.14;99616.44;3586827;40;13958;-57
2021/05/06 10:11:12;;;;;;;;;4.00;3.50;;;;;15.40;38.83;99608.38;3586498;40;14016;-56
2021/05/06 10:13:41;;;;;;;;;4.50;3.25;;;;;15.36;39.21;99610.50;3586767;40;14020;-53
2021/05/06 10:16:10;;;;;;;;;3.75;2.75;;;;;15.06;40.04;99625.53;3594197;40;13980;-56
2021/05/06 10:18:42;;;;;;;;;2.50;2.50;;;;;15.37;39.92;99615.75;3586556;40;14052;-53
2021/05/06 10:21:12;;;;;;;;;3.00;3.00;;;;;15.16;40.92;99622.94;3593570;40;13974;-56
2021/05/06 10:23:40;;;;;;;;;3.00;3.00;;;;;15.09;39.34;99633.41;3585190;40;14196;-58
2021/05/06 10:26:08;;;;;;;;;3.00;2.25;;;;;15.02;40.10;99634.88;3589975;40;14189;-57
2021/05/06 10:28:35;;;;;;;;;4.00;3.00;;;;;14.94;40.84;99629.22;3575613;40;14247;-60
2021/05/06 10:31:08;;;;;;;;;2.50;2.50;;;;;15.34;40.87;99623.28;3576351;40;14006;-59
2021/05/06 10:33:43;;;;;;;;;4.50;3.25;;;;;15.20;41.82;99629.81;3576737;40;14027;-60
2021/05/06 10:36:11;;;;;;;;;2.50;2.50;;;;;15.10;41.56;99628.84;3575430;40;14014;-59
2021/05/06 10:38:41;;;;;;;;;4.00;2.00;;;;;15.13;41.63;99628.59;3575284;40;14287;-59
2021/05/06 10:41:26;;;;;;;;;3.00;3.00;;;;;15.17;41.80;99619.25;3576609;40;14037;-60
2021/05/06 10:44:07;;;;;;;;;3.50;3.00;;;;;14.96;41.75;99619.16;3576276;40;13991;-59
2021/05/06 10:47:01;;;;;;;;;5.25;3.00;;;;;15.00;42.63;99622.47;3576204;40;14508;-60
2021/05/06 10:49:39;;;;;;;;;4.00;3.00;;;;;15.41;40.94;99608.25;3576095;40;14238;-60
2021/05/06 10:52:10;;;;;;;;;3.50;3.00;;;;;15.21;41.24;99607.19;3576547;40;14030;-60
2021/05/06 10:54:50;;;;;;;;;1.75;1.75;;;;;16.06;40.64;99608.25;3592320;40;13989;-60
2021/05/06 10:57:19;;;;;;;;;2.50;2.50;;;;;15.53;41.21;99609.97;3586040;40;13971;-60
2021/05/06 10:59:48;;;;;;;;;2.25;1.75;;;;;14.90;40.24;99614.22;3584783;40;14003;-60
2021/05/06 11:02:54;;;;;;;;;2.75;2.00;;;;;15.08;40.62;99599.22;3578475;40;15019;-59
2021/05/06 11:05:27;;;;;;;;;3.00;2.00;;;;;15.26;39.87;99604.13;3553716;40;14706;-61
2021/05/06 11:08:06;;;;;;;;;4.00;1.75;;;;;15.10;40.06;99597.25;3572972;40;13982;-61
2021/05/06 11:10:55;;;;;;;;;3.00;3.00;;;;;15.15;39.06;99607.69;3577451;40;13941;-60
2021/05/06 11:13:28;;;;;;;;;1.00;1.00;;;;;15.12;39.27;99605.25;3578232;40;13969;-60
2021/05/06 11:16:18;;;;;;;;;1.00;1.00;;;;;15.02;38.49;99615.94;3584697;40;14161;-59
2021/05/06 11:18:51;;;;;;;;;2.00;2.00;;;;;15.12;38.16;99616.94;3585901;40;14564;-59
2021/05/06 11:21:36;;;;;;;;;1.00;1.00;;;;;15.14;39.34;99616.81;3585011;40;14000;-60
2021/05/06 11:24:27;;;;;;;;;1.75;0.75;;;;;15.08;38.71;99626.25;3586082;40;14743;-60
2021/05/06 11:27:00;;;;;;;;;1.00;1.00;;;;;15.44;38.38;99631.50;3582664;40;13959;-60
2021/05/06 11:29:30;;;;;;;;;1.00;1.00;;;;;15.66;38.21;99630.56;3586300;40;13955;-60
2021/05/06 11:31:57;;;;;;;;;1.00;1.00;;;;;15.22;38.32;99627.88;3586425;40;13931;-60
2021/05/06 11:34:39;;;;;;;;;1.00;1.00;;;;;15.14;38.81;99630.34;3586429;40;14014;-60
2021/05/06 11:37:13;;;;;;;;;1.00;1.00;;;;;15.52;38.29;99623.59;3586542;40;14003;-60
2021/05/06 11:39:57;;;;;;;;;2.00;2.00;;;;;15.72;38.25;99620.13;3586356;40;13979;-60
2021/05/06 11:42:27;;;;;;;;;5.00;3.75;;;;;15.67;38.83;99626.88;3586102;40;13979;-59
2021/05/06 11:45:15;;;;;;;;;3.75;1.75;;;;;15.13;38.83;99618.63;3586106;40;13997;-60
2021/05/06 11:47:42;;;;;;;;;2.50;2.50;;;;;15.64;39.98;99622.59;3585932;40;13981;-59
2021/05/06 11:50:31;;;;;;;;;1.75;1.50;;;;;15.89;38.98;99626.81;3585925;40;14209;-61
2021/05/06 11:53:01;;;;;;;;;3.00;2.75;;;;;15.68;39.83;99617.75;3586076;40;13945;-60
2021/05/06 11:55:38;;;;;;;;;2.25;2.25;;;;;16.16;39.01;99604.63;3586185;40;13970;-60
2021/05/06 11:58:06;;;;;;;;;2.00;1.25;;;;;16.05;39.59;99604.69;3585679;40;14172;-59
2021/05/06 12:00:34;;;;;;;;;3.75;3.75;;;;;16.38;40.13;99602.78;3585985;40;13970;-60
2021/05/06 12:03:10;;;;;;;;;2.00;2.00;;;;;16.36;40.20;99594.78;3585731;40;14416;-61
2021/05/06 12:05:55;;;;;;;;;2.25;2.25;;;;;16.23;39.91;99588.72;3584901;40;14491;-61
2021/05/06 12:08:42;;;;;;;;;2.00;2.00;;;;;16.81;38.27;99586.34;3585728;40;14006;-61
2021/05/06 12:11:10;;;;;;;;;3.00;2.00;;;;;17.23;39.45;99586.19;3585744;40;14124;-60
2021/05/06 12:13:38;;;;;;;;;2.00;2.00;;;;;16.43;39.28;99587.84;3585836;40;13933;-60
2021/05/06 12:16:26;;;;;;;;;2.00;2.00;;;;;16.65;38.20;99592.22;3593484;40;13943;-60
2021/05/06 12:19:15;;;;;;;;;4.00;2.00;;;;;15.74;40.70;99590.19;3580928;40;14098;-59
2021/05/06 12:21:57;;;;;;;;;3.50;2.00;;;;;16.14;39.55;99581.38;3578044;40;14094;-61
2021/05/06 12:24:38;;;;;;;;;4.00;4.00;;;;;16.67;40.07;99578.56;3585408;40;14029;-60
2021/05/06 12:27:21;;;;;;;;;4.75;4.75;;;;;17.00;38.89;99582.81;3578492;40;14139;-60
2021/05/06 12:30:13;;;;;;;;;4.50;4.00;;;;;16.86;39.18;99567.81;3575695;40;14195;-60
2021/05/06 12:32:46;;;;;;;;;4.25;3.75;;;;;16.97;38.43;99561.41;3575456;40;13940;-60
2021/05/06 12:35:15;;;;;;;;;3.50;3.00;;;;;17.75;38.37;99569.66;3588296;40;13913;-59
2021/05/06 12:37:44;;;;;;;;;4.25;4.00;;;;;17.02;38.94;99564.56;3585891;40;13939;-60
2021/05/06 12:40:15;;;;;;;;;4.25;4.00;;;;;16.86;39.13;99567.81;3592842;40;13964;-60
2021/05/06 12:42:47;;;;;;;;;3.25;3.25;;;;;17.62;39.00;99553.66;3586067;40;14066;-60
2021/05/06 12:45:14;;;;;;;;;4.25;3.00;;;;;17.27;39.19;99552.34;3585361;40;14140;-60
2021/05/06 12:47:44;;;;;;;;;5.50;3.00;;;;;16.44;40.96;99551.63;3586129;40;14034;-60
2021/05/06 12:50:12;;;;;;;;;3.75;3.00;;;;;15.40;42.35;99544.28;3586934;40;13951;-60
2021/05/06 12:52:45;;;;;;;;;2.00;2.00;;;;;16.04;41.04;99532.59;3580147;40;13977;-60
2021/05/06 12:55:24;;;;;;;;;3.00;3.00;;;;;16.55;39.26;99541.69;3577290;40;13928;-60
2021/05/06 12:58:16;;;;;;;;;5.00;3.00;;;;;17.41;37.75;99544.78;3577211;40;14139;-60
2021/05/06 13:00:54;;;;;;;;;4.00;2.00;;;;;17.17;38.35;99543.34;3576837;40;13968;-60
2021/05/06 13:03:35;;;;;;;;;3.25;2.50;;;;;17.04;38.36;99521.88;3577355;40;13944;-60
2021/05/06 13:06:10;;;;;;;;;5.00;2.00;;;;;16.16;40.47;99514.38;3576839;40;13997;-59
2021/05/06 13:08:46;;;;;;;;;2.00;2.00;;;;;16.32;40.15;99519.31;3576531;40;14436;-60
2021/05/06 13:11:19;;;;;;;;;3.00;2.00;;;;;17.00;38.25;99515.00;3576996;40;14071;-60
2021/05/06 13:13:52;;;;;;;;;2.00;2.00;;;;;17.64;38.58;99508.22;3584515;40;14051;-59
2021/05/06 13:16:48;;;;;;;;;3.00;3.00;;;;;17.10;39.44;99510.47;3576651;40;14146;-60
2021/05/06 13:19:23;;;;;;;;;2.00;2.00;;;;;16.84;38.86;99512.84;3589047;40;13909;-60
2021/05/06 13:21:56;;;;;;;;;3.00;2.00;;;;;16.64;39.55;99513.72;3581420;40;13930;-59
2021/05/06 13:24:22;;;;;;;;;5.00;4.00;;;;;16.33;41.56;99504.78;3582043;40;14443;-58
2021/05/06 13:26:49;;;;;;;;;5.25;5.00;;;;;15.84;43.84;99500.94;3580635;40;13945;-53
2021/05/06 13:29:21;;;;;;;;;5.50;4.50;;;;;15.85;45.27;99510.78;3578292;40;14030;-52
2021/05/06 13:31:51;;;;;;;;;5.50;5.50;;;;;16.46;44.18;99497.28;3581965;40;14199;-55
2021/05/06 13:34:23;;;;;;;;;6.50;6.00;;;;;16.10;44.79;99482.44;3580985;40;14545;-54
2021/05/06 13:37:00;;;;;;;;;4.50;4.25;;;;;16.76;43.87;99498.22;3582706;40;13966;-53
2021/05/06 13:39:27;;;;;;;;;5.00;5.00;;;;;16.82;43.39;99501.25;3582019;40;13955;-54
2021/05/06 13:41:55;;;;;;;;;13.25;6.75;;;;;16.50;44.24;99506.00;3580634;40;14209;-58
2021/05/06 13:44:25;;;;;;;;;7.75;6.75;;;;;15.95;44.62;99501.72;3588299;40;14175;-55
2021/05/06 13:46:55;;;;;;;;;6.25;5.00;;;;;16.57;45.07;99512.59;3580743;40;14006;-55
2021/05/06 13:49:30;;;;;;;;;7.25;7.00;;;;;16.41;44.84;99513.94;3581430;40;14095;-56
2021/05/06 13:52:00;;;;;;;;;7.00;7.00;;;;;15.75;46.94;99513.44;3580965;40;13944;-57
2021/05/06 13:54:28;;;;;;;;;10.50;7.00;;;;;15.68;46.30;99504.09;3585140;40;14477;-57
2021/05/06 13:56:56;;;;;;;;;10.00;7.00;;;;;15.75;46.67;99500.75;3581928;40;14013;-58
2021/05/06 13:59:23;;;;;;;;;8.00;6.25;;;;;16.21;46.21;99490.47;3580767;40;14194;-56
2021/05/06 14:01:55;;;;;;;;;6.75;6.50;;;;;15.95;45.70;99506.28;3590132;40;13988;-54
2021/05/06 14:04:22;;;;;;;;;6.75;6.50;;;;;15.58;46.00;99507.56;3581426;40;13986;-53
2021/05/06 14:06:50;;;;;;;;;11.25;7.75;;;;;15.43;46.91;99505.31;3582093;40;14002;-54
2021/05/06 14:09:18;;;;;;;;;7.75;7.00;;;;;15.54;47.09;99502.56;3580523;40;14023;-54
2021/05/06 14:11:47;;;;;;;;;8.25;4.75;;;;;15.67;47.32;99487.00;3580682;40;14012;-55
2021/05/06 14:14:18;;;;;;;;;4.75;4.75;;;;;15.36;47.07;99488.75;3578542;40;14053;-54
2021/05/06 14:16:47;;;;;;;;;6.25;6.25;;;;;15.18;47.56;99480.34;3580316;40;13997;-57
2021/05/06 14:19:15;;;;;;;;;9.00;5.75;;;;;15.52;46.30;99482.88;3580082;40;14082;-55
2021/05/06 14:21:46;;;;;;;;;9.50;6.25;;;;;15.28;47.56;99485.84;3582126;40;13996;-56
2021/05/06 14:24:14;;;;;;;;;7.00;6.25;;;;;15.30;47.13;99473.03;3584909;40;14035;-55
2021/05/06 14:26:44;;;;;;;;;5.00;5.00;;;;;15.12;47.67;99465.50;3591219;40;13977;-54
2021/05/06 14:29:14;;;;;;;;;6.50;6.50;;;;;14.99;47.71;99478.31;3580620;40;14024;-55
2021/05/06 14:31:41;;;;;;;;;6.00;6.00;;;;;15.39;47.05;99477.66;3580050;40;14191;-55
2021/05/06 14:34:08;;;;;;;;;6.50;6.50;;;;;15.34;46.44;99482.59;3581960;40;13984;-57
2021/05/06 14:36:36;;;;;;;;;7.00;5.00;;;;;15.45;46.39;99482.53;3584005;40;14185;-56
2021/05/06 14:39:05;;;;;;;;;10.00;7.00;;;;;15.21;46.79;99473.81;3578325;40;14072;-57
2021/05/06 14:41:33;;;;;;;;;5.25;5.00;;;;;15.17;45.87;99478.63;3580813;40;13991;-57
2021/05/06 14:44:01;;;;;;;;;6.50;5.00;;;;;14.97;46.69;99463.22;3583018;40;14538;-54
2021/05/06 14:46:28;;;;;;;;;5.25;4.75;;;;;15.03;46.88;99460.84;3580128;40;13988;-56
2021/05/06 14:48:55;;;;;;;;;7.75;6.00;;;;;14.94;47.43;99467.03;3584941;40;14008;-57
2021/05/06 14:51:21;;;;;;;;;7.00;6.00;;;;;14.83;46.75;99467.06;3582156;40;14124;-54
2021/05/06 14:53:48;;;;;;;;;5.50;5.25;;;;;14.74;47.05;99465.97;3583747;40;14016;-55
2021/05/06 14:56:15;;;;;;;;;6.00;5.00;;;;;14.61;47.32;99460.72;3580088;40;14051;-54
2021/05/06 14:58:42;;;;;;;;;5.50;5.00;;;;;14.75;47.40;99458.75;3580943;40;14041;-54
2021/05/06 15:01:09;;;;;;;;;6.25;5.00;;;;;14.82;47.07;99459.91;3579143;40;14009;-56
2021/05/06 15:03:36;;;;;;;;;7.50;7.50;;;;;14.78;47.19;99466.59;3579621;40;14024;-53
2021/05/06 15:06:03;;;;;;;;;6.50;4.50;;;;;14.85;47.38;99456.97;3580072;40;14040;-56
2021/05/06 15:08:32;;;;;;;;;10.00;7.25;;;;;15.05;46.41;99450.75;3580763;40;13976;-55
2021/05/06 15:10:59;;;;;;;;;24.25;13.75;;;;;14.82;46.70;99446.41;3578938;40;14491;-57
2021/05/06 15:13:26;;;;;;;;;6.50;5.00;;;;;14.78;45.94;99442.25;3580606;40;14060;-53
2021/05/06 15:15:53;;;;;;;;;5.00;5.00;;;;;14.82;46.21;99422.09;3579485;40;13968;-55
2021/05/06 15:18:20;;;;;;;;;8.00;7.25;;;;;15.16;45.37;99422.81;3579794;40;13995;-54
2021/05/06 15:20:47;;;;;;;;;9.75;5.25;;;;;14.94;45.26;99429.19;3580136;40;14589;-57